createdAt,value
2019-03-08T00:00:02.133Z,99406.30
2019-03-08T00:02:33.465Z,99413.90
2019-03-08T00:05:05.314Z,99415.17
2019-03-08T00:07:36.950Z,99420.49
2019-03-08T00:10:09.076Z,99427.34
2019-03-08T00:12:40.337Z,99419.67
2019-03-08T00:15:12.015Z,99439.00
2019-03-08T00:17:43.320Z,99425.36
2019-03-08T00:20:14.988Z,99431.58
2019-03-08T00:22:46.533Z,99436.80
2019-03-08T00:25:17.884Z,99431.81
2019-03-08T00:27:49.665Z,99441.23
2019-03-08T00:30:21.680Z,99447.20
2019-03-08T00:32:53.006Z,99439.52
2019-03-08T00:35:24.322Z,99449.64
2019-03-08T00:37:55.606Z,99450.45
2019-03-08T00:40:26.881Z,99478.22
2019-03-08T00:42:58.144Z,99460.98
2019-03-08T00:45:29.381Z,99476.83
2019-03-08T00:48:00.623Z,99476.80
2019-03-08T00:50:31.851Z,99490.09
2019-03-08T00:53:02.998Z,99493.66
2019-03-08T00:55:34.155Z,99504.82
2019-03-08T00:58:05.535Z,99505.73
2019-03-08T01:00:36.819Z,99512.05
2019-03-08T01:03:08.121Z,99515.17
2019-03-08T01:05:39.335Z,99528.97
2019-03-08T01:08:10.566Z,99531.17
2019-03-08T01:13:43.827Z,99540.80
2019-03-08T01:16:15.124Z,99549.44
2019-03-08T01:18:46.362Z,99558.77
2019-03-08T01:21:17.602Z,99556.77
2019-03-08T01:23:48.878Z,99553.16
2019-03-08T01:26:20.193Z,99559.95
2019-03-08T01:28:51.557Z,99559.95
2019-03-08T01:31:22.839Z,99569.38
2019-03-08T01:33:54.102Z,99572.17
2019-03-08T01:36:27.890Z,99594.69
2019-03-08T01:39:00.365Z,99583.45
2019-03-08T01:41:31.615Z,99601.31
2019-03-08T01:44:02.858Z,99600.30
2019-03-08T01:46:34.068Z,99612.05
2019-03-08T01:49:05.315Z,99609.25
2019-03-08T01:51:36.750Z,99617.20
2019-03-08T01:54:08.006Z,99613.43
2019-03-08T01:56:39.205Z,99644.03
2019-03-08T01:59:10.491Z,99644.55
2019-03-08T02:01:41.807Z,99633.13
2019-03-08T02:04:13.158Z,99633.48
2019-03-08T02:06:44.362Z,99642.27
2019-03-08T02:09:15.918Z,99640.13
2019-03-08T02:11:47.143Z,99650.05
2019-03-08T02:14:18.391Z,99651.20
2019-03-08T02:16:49.509Z,99649.87
2019-03-08T02:19:20.746Z,99664.91
2019-03-08T02:21:52.029Z,99665.07
2019-03-08T02:24:23.308Z,99665.75
2019-03-08T02:26:54.645Z,99667.06
2019-03-08T02:29:25.857Z,99658.97
2019-03-08T02:31:57.126Z,99661.46
2019-03-08T02:34:28.388Z,99677.33
2019-03-08T02:36:59.800Z,99670.05
2019-03-08T02:39:51.318Z,99681.12
2019-03-08T02:42:41.566Z,99674.83
2019-03-08T02:45:12.873Z,99667.22
2019-03-08T02:47:44.205Z,99687.41
2019-03-08T02:50:15.535Z,99680.78
2019-03-08T02:52:46.746Z,99688.72
2019-03-08T02:55:18.184Z,99692.20
2019-03-08T02:57:49.659Z,99699.30
2019-03-08T03:00:21.927Z,99703.92
2019-03-08T03:02:53.173Z,99708.89
2019-03-08T03:05:24.431Z,99705.08
2019-03-08T03:07:55.677Z,99703.92
2019-03-08T03:10:27.239Z,99711.55
2019-03-08T03:12:58.529Z,99712.86
2019-03-08T03:15:30.004Z,99714.67
2019-03-08T03:18:01.234Z,99720.81
2019-03-08T03:20:32.731Z,99721.78
2019-03-08T03:23:03.942Z,99726.08
2019-03-08T03:25:35.430Z,99736.02
2019-03-08T03:28:06.553Z,99738.50
2019-03-08T03:30:37.974Z,99734.17
2019-03-08T03:33:09.178Z,99748.56
2019-03-08T03:35:40.509Z,99753.38
2019-03-08T03:38:11.833Z,99764.47
2019-03-08T03:40:43.010Z,99763.95
2019-03-08T03:43:14.259Z,99769.76
2019-03-08T03:45:45.656Z,99761.47
2019-03-08T03:48:16.999Z,99781.17
2019-03-08T03:50:48.214Z,99788.27
2019-03-08T03:53:19.713Z,99783.65
2019-03-08T03:55:50.961Z,99796.20
2019-03-08T03:58:22.433Z,99798.54
2019-03-08T04:00:53.834Z,99802.15
2019-03-08T04:03:25.167Z,99816.55
2019-03-08T04:05:56.390Z,99814.05
2019-03-08T04:08:27.665Z,99820.69
2019-03-08T04:10:59.108Z,99819.70
2019-03-08T04:13:30.377Z,99831.45
2019-03-08T04:16:01.668Z,99833.25
2019-03-08T04:18:33.091Z,99836.56
2019-03-08T04:21:04.332Z,99840.87
2019-03-08T04:23:35.635Z,99850.94
2019-03-08T04:26:06.948Z,99861.03
2019-03-08T04:28:38.475Z,99863.37
2019-03-08T04:31:09.839Z,99868.00
2019-03-08T04:33:41.191Z,99880.39
2019-03-08T04:36:12.507Z,99880.23
2019-03-08T04:38:43.776Z,99882.88
2019-03-08T04:41:15.015Z,99887.16
2019-03-08T04:43:46.411Z,99883.21
2019-03-08T04:46:17.638Z,99892.14
2019-03-08T04:48:48.787Z,99903.08
2019-03-08T04:51:20.146Z,99904.88
2019-03-08T04:53:51.320Z,99911.99
2019-03-08T04:56:22.570Z,99913.01
2019-03-08T04:58:53.777Z,99912.01
2019-03-08T05:01:25.124Z,99923.58
2019-03-08T05:03:56.374Z,99921.92
2019-03-08T05:06:27.933Z,99922.58
2019-03-08T05:08:59.158Z,99926.89
2019-03-08T05:11:30.574Z,99928.52
2019-03-08T05:14:01.818Z,99938.78
2019-03-08T05:16:33.008Z,99940.09
2019-03-08T05:19:04.202Z,99945.89
2019-03-08T05:21:35.454Z,99954.35
2019-03-08T05:24:07.058Z,99957.14
2019-03-08T05:26:38.315Z,99967.39
2019-03-08T05:29:09.547Z,99978.99
2019-03-08T05:31:40.918Z,99978.33
2019-03-08T05:34:12.374Z,99989.41
2019-03-08T05:36:43.985Z,99992.69
2019-03-08T05:39:34.118Z,99995.35
2019-03-08T05:42:24.398Z,100003.15
2019-03-08T05:44:55.652Z,100017.36
2019-03-08T05:47:26.961Z,100015.52
2019-03-08T05:49:58.388Z,100027.14
2019-03-08T05:52:29.680Z,100033.22
2019-03-08T05:55:01.257Z,100043.83
2019-03-08T05:57:32.675Z,100049.12
2019-03-08T06:00:04.163Z,100047.93
2019-03-08T06:02:35.525Z,100062.19
2019-03-08T06:05:07.886Z,100070.91
2019-03-08T06:07:39.312Z,100083.95
2019-03-08T06:10:34.448Z,100088.98
2019-03-08T06:13:06.525Z,100089.77
2019-03-08T06:15:37.797Z,100094.39
2019-03-08T06:18:09.317Z,100100.70
2019-03-08T06:20:40.632Z,100122.52
2019-03-08T06:23:12.032Z,100124.44
2019-03-08T06:25:43.276Z,100123.48
2019-03-08T06:28:14.573Z,100126.86
2019-03-08T06:30:45.877Z,100144.02
2019-03-08T06:33:17.159Z,100143.55
2019-03-08T06:35:48.634Z,100151.81
2019-03-08T06:38:19.945Z,100160.15
2019-03-08T06:40:51.222Z,100163.48
2019-03-08T06:43:22.721Z,100172.02
2019-03-08T06:45:54.091Z,100187.97
2019-03-08T06:48:25.394Z,100191.45
2019-03-08T06:50:56.623Z,100193.15
2019-03-08T06:53:28.012Z,100207.08
2019-03-08T06:55:59.318Z,100213.22
2019-03-08T06:58:39.588Z,100221.34
2019-03-08T07:01:13.428Z,100234.72
2019-03-08T07:03:44.909Z,100228.66
2019-03-08T07:06:16.189Z,100238.22
2019-03-08T07:09:08.452Z,100252.73
2019-03-08T07:11:58.695Z,100252.19
2019-03-08T07:14:30.020Z,100261.82
2019-03-08T07:17:01.376Z,100271.23
2019-03-08T07:19:40.528Z,100274.23
2019-03-08T07:22:10.948Z,100292.41
2019-03-08T07:24:54.127Z,100300.24
2019-03-08T07:27:42.988Z,100307.71
2019-03-08T07:30:58.162Z,100315.47
2019-03-08T07:33:36.995Z,100328.42
2019-03-08T07:36:25.546Z,100323.23
2019-03-08T07:39:18.054Z,100340.93
2019-03-08T07:42:06.580Z,100340.99
2019-03-08T07:44:51.711Z,100350.44
2019-03-08T07:47:29.152Z,100365.65
2019-03-08T07:50:10.079Z,100371.10
2019-03-08T07:53:00.142Z,100373.83
2019-03-08T07:55:48.671Z,100380.62
2019-03-08T07:58:43.535Z,100390.00
2019-03-08T08:01:29.463Z,100385.82
2019-03-08T08:04:09.644Z,100400.14
2019-03-08T08:06:46.567Z,100406.42
2019-03-08T08:09:34.285Z,100405.95
2019-03-08T08:12:24.365Z,100422.75
2019-03-08T08:15:17.115Z,100432.17
2019-03-08T08:18:19.266Z,100433.27
2019-03-08T08:21:12.769Z,100440.63
2019-03-08T08:23:58.781Z,100448.85
2019-03-08T08:26:39.088Z,100455.17
2019-03-08T08:29:22.359Z,100451.42
2019-03-08T08:32:02.441Z,100461.67
2019-03-08T08:34:50.842Z,100465.01
2019-03-08T08:37:41.395Z,100464.14
2019-03-08T08:40:29.945Z,100484.34
2019-03-08T08:43:20.099Z,100481.25
2019-03-08T08:46:13.146Z,100492.43
2019-03-08T08:49:01.935Z,100495.07
2019-03-08T08:51:53.151Z,100496.90
2019-03-08T08:54:49.057Z,100509.71
2019-03-08T08:57:45.286Z,100510.17
2019-03-08T09:00:56.652Z,100520.66
2019-03-08T09:03:39.127Z,100514.84
2019-03-08T09:06:20.380Z,100531.92
2019-03-08T09:09:06.761Z,100529.80
2019-03-08T09:11:47.152Z,100540.90
2019-03-08T09:14:20.657Z,100546.30
2019-03-08T09:17:13.897Z,100551.58
2019-03-08T09:20:16.068Z,100554.07
2019-03-08T09:23:02.483Z,100548.14
2019-03-08T09:25:51.234Z,100553.08
2019-03-08T09:28:45.035Z,100556.63
2019-03-08T09:31:35.099Z,100564.56
2019-03-08T09:34:28.262Z,100568.08
2019-03-08T09:37:18.976Z,100561.11
2019-03-08T09:40:03.626Z,100565.86
2019-03-08T09:42:57.029Z,100580.41
2019-03-08T09:45:46.054Z,100574.73
2019-03-08T09:48:39.378Z,100579.94
2019-03-08T09:51:47.857Z,100583.67
2019-03-08T09:54:40.827Z,100586.64
2019-03-08T09:57:30.887Z,100598.25
2019-03-08T10:00:21.279Z,100603.05
2019-03-08T10:03:14.502Z,100609.89
2019-03-08T10:06:04.514Z,100617.71
2019-03-08T10:09:06.951Z,100613.90
2019-03-08T10:12:00.258Z,100614.80
2019-03-08T10:14:38.453Z,100623.89
2019-03-08T10:17:37.662Z,100633.03
2019-03-08T10:20:28.930Z,100632.34
2019-03-08T10:23:20.078Z,100636.53
2019-03-08T10:25:57.575Z,100639.16
2019-03-08T10:29:01.521Z,100650.02
2019-03-08T10:31:51.727Z,100654.84
2019-03-08T10:34:44.746Z,100656.80
2019-03-08T10:37:49.935Z,100666.05
2019-03-08T10:40:45.850Z,100675.70
2019-03-08T10:43:25.414Z,100673.45
2019-03-08T10:46:15.680Z,100684.72
2019-03-08T10:49:06.748Z,100694.61
2019-03-08T10:51:50.121Z,100692.73
2019-03-08T10:54:34.098Z,100710.73
2019-03-08T10:57:25.851Z,100713.79
2019-03-08T11:00:29.011Z,100733.49
2019-03-08T11:03:24.576Z,100737.05
2019-03-08T11:06:01.959Z,100745.44
2019-03-08T11:08:51.151Z,100735.17
2019-03-08T11:11:29.869Z,100738.81
2019-03-08T11:14:18.254Z,100751.33
2019-03-08T11:17:14.242Z,100750.58
2019-03-08T11:20:13.129Z,100752.41
2019-03-08T11:23:09.942Z,100752.39
2019-03-08T11:26:02.888Z,100752.81
2019-03-08T11:29:07.941Z,100761.30
2019-03-08T11:32:12.973Z,100756.98
2019-03-08T11:35:06.867Z,100763.66
2019-03-08T11:37:55.056Z,100764.89
2019-03-08T11:40:37.565Z,100748.67
2019-03-08T11:43:28.987Z,100759.17
2019-03-08T11:46:22.209Z,100762.56
2019-03-08T11:49:07.621Z,100766.61
2019-03-08T11:52:08.046Z,100765.45
2019-03-08T11:55:03.775Z,100770.95
2019-03-08T11:57:52.242Z,100775.22
2019-03-08T12:00:36.478Z,100779.78
2019-03-08T12:03:30.710Z,100781.56
2019-03-08T12:06:20.822Z,100770.37
2019-03-08T12:09:20.003Z,100786.08
2019-03-08T12:12:15.824Z,100788.41
2019-03-08T12:14:54.988Z,100784.36
2019-03-08T12:17:51.300Z,100796.71
2019-03-08T12:20:56.646Z,100798.28
2019-03-08T12:23:43.318Z,100801.47
2019-03-08T12:26:33.413Z,100797.58
2019-03-08T12:29:20.986Z,100797.04
2019-03-08T12:32:11.022Z,100793.72
2019-03-08T12:34:47.893Z,100805.36
2019-03-08T12:37:41.631Z,100809.89
2019-03-08T12:40:28.468Z,100808.78
2019-03-08T12:43:21.104Z,100805.13
2019-03-08T12:46:06.210Z,100801.48
2019-03-08T12:48:54.729Z,100803.28
2019-03-08T12:51:33.908Z,100792.81
2019-03-08T12:54:22.694Z,100794.22
2019-03-08T12:57:26.568Z,100790.10
2019-03-08T13:00:04.941Z,100788.96
2019-03-08T13:02:53.585Z,100791.12
2019-03-08T13:05:50.029Z,100781.62
2019-03-08T13:08:40.037Z,100774.88
2019-03-08T13:11:11.387Z,100783.57
2019-03-08T13:13:42.637Z,100778.08
2019-03-08T13:16:14.403Z,100782.06
2019-03-08T13:18:45.646Z,100790.91
2019-03-08T13:21:19.946Z,100779.63
2019-03-08T13:23:51.436Z,100782.15
2019-03-08T13:26:22.740Z,100772.41
2019-03-08T13:28:54.073Z,100773.75
2019-03-08T13:31:33.782Z,100775.73
2019-03-08T13:34:18.787Z,100780.94
2019-03-08T13:36:50.251Z,100785.64
2019-03-08T13:39:21.561Z,100780.97
2019-03-08T13:41:52.817Z,100792.45
2019-03-08T13:44:24.152Z,100790.93
2019-03-08T13:46:55.633Z,100788.59
2019-03-08T13:49:27.306Z,100794.11
2019-03-08T13:51:58.599Z,100797.59
2019-03-08T13:54:29.910Z,100798.44
2019-03-08T13:57:01.211Z,100797.80
2019-03-08T13:59:32.489Z,100803.94
2019-03-08T14:02:03.742Z,100799.94
2019-03-08T14:04:34.945Z,100800.75
2019-03-08T14:07:06.265Z,100795.74
2019-03-08T14:09:37.569Z,100807.06
2019-03-08T14:12:10.958Z,100802.56
2019-03-08T14:14:42.126Z,100798.98
2019-03-08T14:17:13.471Z,100801.52
2019-03-08T14:19:46.754Z,100800.89
2019-03-08T14:22:20.543Z,100806.94
2019-03-08T14:24:52.411Z,100814.44
2019-03-08T14:27:23.686Z,100806.27
2019-03-08T14:29:59.121Z,100809.95
2019-03-08T14:32:29.582Z,100802.58
2019-03-08T14:35:01.023Z,100804.59
2019-03-08T14:37:32.265Z,100810.91
2019-03-08T14:40:06.129Z,100811.52
2019-03-08T14:42:55.951Z,100819.25
2019-03-08T14:45:35.105Z,100818.58
2019-03-08T14:48:09.487Z,100825.89
2019-03-08T14:50:39.430Z,100817.75
2019-03-08T14:53:10.765Z,100817.55
2019-03-08T14:55:41.993Z,100815.56
2019-03-08T14:58:13.302Z,100823.39
2019-03-08T15:00:45.098Z,100811.56
2019-03-08T15:03:16.413Z,100817.76
2019-03-08T15:05:51.218Z,100822.59
2019-03-08T15:08:23.162Z,100824.08
2019-03-08T15:10:54.578Z,100827.37
2019-03-08T15:13:25.933Z,100817.52
2019-03-08T15:15:58.081Z,100831.08
2019-03-08T15:18:31.229Z,100836.38
2019-03-08T15:21:02.609Z,100827.19
2019-03-08T15:23:33.842Z,100833.45
2019-03-08T15:26:05.140Z,100834.61
2019-03-08T15:28:36.408Z,100827.49
2019-03-08T15:31:07.687Z,100829.16
2019-03-08T15:33:39.014Z,100829.28
2019-03-08T15:36:10.367Z,100831.95
2019-03-08T15:38:43.335Z,100829.09
2019-03-08T15:41:14.680Z,100834.23
2019-03-08T15:43:46.909Z,100835.02
2019-03-08T15:46:22.405Z,100835.81
2019-03-08T15:48:53.208Z,100841.31
2019-03-08T15:51:25.704Z,100838.80
2019-03-08T15:53:58.611Z,100848.23
2019-03-08T15:56:29.907Z,100840.13
2019-03-08T15:59:03.252Z,100838.83
2019-03-08T16:01:34.293Z,100833.63
2019-03-08T16:04:08.290Z,100836.83
2019-03-08T16:06:43.226Z,100831.88
2019-03-08T16:09:12.614Z,100826.58
2019-03-08T16:11:45.992Z,100830.39
2019-03-08T16:14:16.882Z,100834.23
2019-03-08T16:16:48.130Z,100832.17
2019-03-08T16:19:20.819Z,100833.99
2019-03-08T16:21:52.406Z,100832.52
2019-03-08T16:24:30.653Z,100826.50
2019-03-08T16:27:02.424Z,100818.67
2019-03-08T16:29:32.895Z,100816.47
2019-03-08T16:32:16.355Z,100810.61
2019-03-08T16:34:48.792Z,100815.56
2019-03-08T16:37:41.634Z,100802.81
2019-03-08T16:40:46.419Z,100815.38
2019-03-08T16:43:41.992Z,100805.05
2019-03-08T16:46:26.851Z,100803.39
2019-03-08T16:49:05.483Z,100795.74
2019-03-08T16:51:57.735Z,100788.73
2019-03-08T16:54:59.130Z,100796.02
2019-03-08T16:57:44.342Z,100794.83
2019-03-08T17:00:40.345Z,100789.78
2019-03-08T17:03:33.283Z,100790.27
2019-03-08T17:06:26.556Z,100794.91
2019-03-08T17:09:19.555Z,100794.58
2019-03-08T17:12:07.513Z,100792.58
2019-03-08T17:14:54.709Z,100801.77
2019-03-08T17:17:56.934Z,100801.84
2019-03-08T17:20:45.485Z,100799.07
2019-03-08T17:23:25.087Z,100798.99
2019-03-08T17:26:09.953Z,100799.14
2019-03-08T17:29:00.176Z,100797.86
2019-03-08T17:31:50.531Z,100807.34
2019-03-08T17:34:46.646Z,100812.70
2019-03-08T17:37:42.876Z,100809.47
2019-03-08T17:40:29.999Z,100806.39
2019-03-08T17:43:23.224Z,100808.24
2019-03-08T17:46:02.840Z,100805.92
2019-03-08T17:48:49.121Z,100810.32
2019-03-08T17:51:42.100Z,100806.22
2019-03-08T17:54:23.610Z,100800.74
2019-03-08T17:57:19.676Z,100802.77
2019-03-08T18:00:11.113Z,100797.67
2019-03-08T18:03:10.244Z,100797.86
2019-03-08T18:05:58.809Z,100799.42
2019-03-08T18:09:06.970Z,100792.42
2019-03-08T18:11:46.819Z,100790.57
2019-03-08T18:14:45.818Z,100797.91
2019-03-08T18:17:42.043Z,100800.81
2019-03-08T18:20:44.062Z,100802.12
2019-03-08T18:23:42.342Z,100799.70
2019-03-08T18:26:44.733Z,100793.91
2019-03-08T18:29:46.834Z,100792.35
2019-03-08T18:32:28.456Z,100788.57
2019-03-08T18:35:27.376Z,100792.22
2019-03-08T18:38:17.334Z,100785.64
2019-03-08T18:41:13.282Z,100772.59
2019-03-08T18:44:03.366Z,100780.86
2019-03-08T18:46:56.608Z,100783.67
2019-03-08T18:49:38.309Z,100779.37
2019-03-08T18:52:26.960Z,100783.77
2019-03-08T18:55:19.787Z,100786.45
2019-03-08T18:58:05.374Z,100790.55
2019-03-08T19:01:01.462Z,100794.72
2019-03-08T19:03:59.313Z,100801.55
2019-03-08T19:06:57.893Z,100793.64
2019-03-08T19:09:42.866Z,100799.09
2019-03-08T19:12:27.968Z,100796.72
2019-03-08T19:15:18.098Z,100804.45
2019-03-08T19:17:59.661Z,100800.75
2019-03-08T19:20:46.320Z,100795.27
2019-03-08T19:23:35.082Z,100795.50
2019-03-08T19:26:31.319Z,100792.36
2019-03-08T19:29:24.795Z,100797.81
2019-03-08T19:32:06.124Z,100795.06
2019-03-08T19:34:56.180Z,100793.98
2019-03-08T19:37:46.293Z,100790.00
2019-03-08T19:40:27.902Z,100787.62
2019-03-08T19:43:18.251Z,100779.08
2019-03-08T19:46:02.272Z,100781.59
2019-03-08T19:49:07.187Z,100784.39
2019-03-08T19:51:55.671Z,100784.82
2019-03-08T19:54:54.534Z,100776.11
2019-03-08T19:57:43.279Z,100775.39
2019-03-08T20:00:46.651Z,100771.55
2019-03-08T20:03:39.516Z,100765.91
2019-03-08T20:06:41.356Z,100756.53
2019-03-08T20:09:34.171Z,100756.96
2019-03-08T20:12:23.020Z,100755.20
2019-03-08T20:15:11.403Z,100752.12
2019-03-08T20:17:50.984Z,100750.74
2019-03-08T20:20:41.006Z,100746.30
2019-03-08T20:23:36.974Z,100749.27
2019-03-08T20:26:25.435Z,100748.23
2019-03-08T20:29:22.585Z,100741.65
2019-03-08T20:32:11.288Z,100742.84
2019-03-08T20:35:04.354Z,100737.20
2019-03-08T20:37:49.434Z,100727.63
2019-03-08T20:40:48.941Z,100727.73
2019-03-08T20:43:30.799Z,100735.83
2019-03-08T20:46:20.814Z,100729.19
2019-03-08T20:48:52.046Z,100719.25
2019-03-08T20:51:23.416Z,100719.20
2019-03-08T20:53:54.765Z,100715.08
2019-03-08T20:56:26.079Z,100703.80
2019-03-08T20:58:57.295Z,100705.94
2019-03-08T21:01:28.752Z,100703.94
2019-03-08T21:04:00.088Z,100692.99
2019-03-08T21:06:31.423Z,100696.12
2019-03-08T21:09:02.636Z,100702.10
2019-03-08T21:11:33.937Z,100692.30
2019-03-08T21:14:05.207Z,100689.40
2019-03-08T21:16:37.449Z,100698.45
2019-03-08T21:19:08.773Z,100686.75
2019-03-08T21:21:40.233Z,100684.90
2019-03-08T21:24:11.715Z,100685.31
2019-03-08T21:26:42.946Z,100683.42
2019-03-08T21:29:14.341Z,100681.91
2019-03-08T21:31:45.634Z,100677.31
2019-03-08T21:34:19.557Z,100677.45
2019-03-08T21:36:50.817Z,100665.62
2019-03-08T21:39:22.128Z,100667.32
2019-03-08T21:41:53.405Z,100663.72
2019-03-08T21:44:24.701Z,100654.80
2019-03-08T21:47:03.240Z,100641.35
2019-03-08T21:49:34.519Z,100647.50
2019-03-08T21:52:05.797Z,100644.85
2019-03-08T21:54:37.105Z,100643.48
2019-03-08T21:57:08.444Z,100635.19
2019-03-08T21:59:39.831Z,100624.79
2019-03-08T22:02:11.160Z,100624.13
2019-03-08T22:04:49.414Z,100611.02
2019-03-08T22:07:20.674Z,100604.39
2019-03-08T22:10:13.390Z,100600.41
2019-03-08T22:12:44.671Z,100586.55
2019-03-08T22:15:16.083Z,100587.73
2019-03-08T22:17:47.389Z,100581.47
2019-03-08T22:20:18.625Z,100568.23
2019-03-08T22:22:49.928Z,100572.36
2019-03-08T22:25:23.007Z,100568.70
2019-03-08T22:27:54.273Z,100568.41
2019-03-08T22:30:25.560Z,100569.46
2019-03-08T22:32:56.815Z,100568.52
2019-03-08T22:35:28.128Z,100567.07
2019-03-08T22:37:59.481Z,100562.91
2019-03-08T22:40:30.827Z,100551.93
2019-03-08T22:43:02.076Z,100567.53
2019-03-08T22:45:33.301Z,100566.12
2019-03-08T22:48:04.826Z,100563.58
2019-03-08T22:50:36.064Z,100558.09
2019-03-08T22:53:09.737Z,100544.09
2019-03-08T22:55:41.013Z,100543.88
2019-03-08T22:58:12.161Z,100544.00
2019-03-08T23:01:22.975Z,100535.45
2019-03-08T23:03:54.735Z,100542.16
2019-03-08T23:06:26.013Z,100536.59
2019-03-08T23:08:57.232Z,100530.59
2019-03-08T23:11:28.823Z,100528.94
2019-03-08T23:14:00.107Z,100523.27
2019-03-08T23:16:31.526Z,100504.03
2019-03-08T23:19:02.812Z,100505.44
2019-03-08T23:21:34.040Z,100501.90
2019-03-08T23:24:24.236Z,100505.10
2019-03-08T23:30:05.617Z,100493.91
2019-03-08T23:32:40.273Z,100480.95
2019-03-08T23:35:11.549Z,100476.84
2019-03-08T23:37:42.848Z,100468.56
2019-03-08T23:40:14.425Z,100461.42
2019-03-08T23:42:45.717Z,100455.64
2019-03-08T23:45:16.918Z,100450.48
2019-03-08T23:47:48.208Z,100448.02
2019-03-08T23:50:19.587Z,100443.02
2019-03-08T23:52:50.762Z,100434.08
2019-03-08T23:55:21.975Z,100426.89
2019-03-08T23:57:53.237Z,100423.55
